Time;durP1;ratioP1;P1;durP2;ratioP2;P2;SDS_P1;SDS_P2;PMS_P1;PMS_P2;Temp;Humidity;BMP_temperature;BMP_pressure;BME280_temperature;BME280_humidity;BME280_pressure;Samples;Min_cycle;Max_cycle;Signal;HPM_P1;HPM_P2
2022/10/09 00:01:20;;;;;;;8.98;4.13;;;5.60;99.90;;;;;;4992112;28;20396;-72
2022/10/09 00:03:48;;;;;;;6.70;3.78;;;5.50;99.90;;;;;;4977092;28;20053;-73
2022/10/09 00:06:17;;;;;;;8.07;4.43;;;5.40;99.90;;;;;;4993830;28;20034;-73
2022/10/09 00:08:44;;;;;;;11.25;5.72;;;5.40;99.90;;;;;;4994312;28;20039;-73
2022/10/09 00:11:15;;;;;;;16.25;6.15;;;5.50;99.90;;;;;;4993715;28;20038;-73
2022/10/09 00:13:42;;;;;;;11.27;4.70;;;5.50;99.90;;;;;;4993005;28;20049;-75
2022/10/09 00:16:11;;;;;;;8.65;3.83;;;5.50;99.90;;;;;;4991870;28;20022;-73
2022/10/09 00:18:37;;;;;;;8.30;4.88;;;5.50;99.90;;;;;;4991921;28;20061;-72
2022/10/09 00:21:05;;;;;;;8.75;4.20;;;5.50;99.90;;;;;;4990499;28;20405;-73
2022/10/09 00:23:32;;;;;;;10.32;4.88;;;5.50;99.90;;;;;;4993704;28;20376;-73
2022/10/09 00:26:00;;;;;;;7.65;3.83;;;5.50;99.90;;;;;;4976612;28;20030;-74
2022/10/09 00:28:28;;;;;;;13.55;4.47;;;5.50;99.90;;;;;;4995284;28;20045;-73
2022/10/09 00:30:55;;;;;;;14.35;5.18;;;5.60;99.90;;;;;;4992213;28;20049;-73
2022/10/09 00:33:21;;;;;;;13.18;5.32;;;5.50;99.90;;;;;;4993516;28;20073;-73
2022/10/09 00:35:48;;;;;;;18.05;6.03;;;5.40;99.90;;;;;;4992611;28;20483;-73
2022/10/09 00:38:14;;;;;;;10.57;6.25;;;5.40;99.90;;;;;;4994589;28;20031;-73
2022/10/09 00:40:41;;;;;;;9.60;5.53;;;5.40;99.90;;;;;;4993010;28;20039;-73
2022/10/09 00:43:35;;;;;;;9.88;6.60;;;5.30;99.90;;;;;;4993721;28;20033;-73
2022/10/09 00:46:02;;;;;;;14.60;6.40;;;5.30;99.90;;;;;;4993082;28;20038;-73
2022/10/09 00:48:28;;;;;;;10.75;5.07;;;5.20;99.90;;;;;;4976454;28;20042;-73
2022/10/09 00:50:58;;;;;;;8.88;5.07;;;5.20;99.90;;;;;;4992101;28;20391;-74
2022/10/09 00:53:27;;;;;;;8.10;5.03;;;5.20;99.90;;;;;;4992647;28;20050;-72
2022/10/09 00:55:54;;;;;;;10.60;5.18;;;5.20;99.90;;;;;;4993479;28;20034;-73
2022/10/09 00:58:21;;;;;;;12.13;5.25;;;5.30;99.90;;;;;;4994104;28;20038;-73
2022/10/09 01:00:48;;;;;;;9.68;5.35;;;5.30;99.90;;;;;;4990254;28;20038;-74
2022/10/09 01:03:14;;;;;;;10.00;4.40;;;5.30;99.90;;;;;;5008519;28;20047;-72
2022/10/09 01:06:04;;;;;;;8.65;4.88;;;5.20;99.90;;;;;;4992698;28;20037;-72
2022/10/09 01:08:42;;;;;;;12.63;7.03;;;5.20;99.90;;;;;;4994053;28;20030;-74
2022/10/09 01:11:21;;;;;;;11.52;4.82;;;5.20;99.90;;;;;;4987147;28;20045;-74
2022/10/09 01:13:56;;;;;;;11.10;6.18;;;5.10;99.90;;;;;;4993184;28;20030;-75
2022/10/09 01:16:29;;;;;;;8.05;4.88;;;5.10;99.90;;;;;;4991593;28;20038;-72
2022/10/09 01:19:09;;;;;;;10.10;5.35;;;5.00;99.90;;;;;;4993151;28;20414;-73
2022/10/09 01:22:23;;;;;;;8.95;4.95;;;4.90;99.90;;;;;;4992149;28;20042;-73
2022/10/09 01:25:06;;;;;;;10.32;4.75;;;4.90;99.90;;;;;;4948723;28;20046;-72
2022/10/09 01:27:35;;;;;;;9.25;4.53;;;5.00;99.90;;;;;;4992500;28;20038;-73
2022/10/09 01:30:07;;;;;;;9.90;5.10;;;4.90;99.90;;;;;;4992378;28;20380;-73
2022/10/09 01:32:39;;;;;;;8.70;4.85;;;4.90;99.90;;;;;;4992565;28;20050;-73
2022/10/09 01:35:07;;;;;;;8.70;4.82;;;4.90;99.90;;;;;;4992874;28;20209;-73
2022/10/09 01:37:35;;;;;;;10.38;5.63;;;4.90;99.90;;;;;;5007771;28;20047;-73
2022/10/09 01:40:03;;;;;;;7.65;4.93;;;4.80;99.90;;;;;;4992175;28;20035;-74
2022/10/09 01:42:31;;;;;;;9.40;5.05;;;4.70;99.90;;;;;;4992027;28;20061;-72
2022/10/09 01:44:57;;;;;;;8.10;5.68;;;4.60;99.90;;;;;;4992480;28;20034;-73
2022/10/09 01:47:23;;;;;;;11.07;5.28;;;4.70;99.90;;;;;;4992965;28;20037;-73
2022/10/09 01:50:13;;;;;;;12.75;6.07;;;4.60;99.90;;;;;;4992320;28;20051;-73
2022/10/09 01:53:04;;;;;;;9.15;5.43;;;4.60;99.90;;;;;;4989192;28;20392;-73
2022/10/09 01:55:55;;;;;;;12.38;5.38;;;4.40;99.90;;;;;;4992676;28;20053;-73
2022/10/09 01:58:32;;;;;;;9.05;4.82;;;4.50;99.90;;;;;;4993275;28;20035;-72
2022/10/09 02:01:23;;;;;;;11.95;6.63;;;4.40;99.90;;;;;;5006463;28;20031;-72
2022/10/09 02:03:52;;;;;;;11.10;5.68;;;4.30;99.90;;;;;;4991237;28;20050;-75
2022/10/09 02:06:18;;;;;;;12.98;5.85;;;4.20;99.90;;;;;;4993335;28;20038;-73
2022/10/09 02:08:49;;;;;;;12.20;6.07;;;4.20;99.90;;;;;;4991582;28;20042;-71
2022/10/09 02:11:15;;;;;;;10.25;5.85;;;4.20;99.90;;;;;;4991889;28;20038;-72
2022/10/09 02:13:43;;;;;;;8.18;5.65;;;4.20;99.90;;;;;;4992795;28;20057;-72
2022/10/09 02:16:17;;;;;;;10.77;6.20;;;4.30;99.90;;;;;;4991316;28;20057;-72
2022/10/09 02:18:47;;;;;;;8.13;5.38;;;4.20;99.90;;;;;;4992869;28;20038;-73
2022/10/09 02:21:22;;;;;;;10.10;5.38;;;4.20;99.90;;;;;;4984827;28;20484;-73
2022/10/09 02:23:50;;;;;;;13.07;6.35;;;4.10;99.90;;;;;;4992018;28;20480;-75
2022/10/09 02:26:18;;;;;;;13.85;5.93;;;4.10;99.90;;;;;;4992503;28;20484;-72
2022/10/09 02:28:44;;;;;;;13.00;6.00;;;4.10;99.90;;;;;;4991275;28;20498;-74
2022/10/09 02:31:24;;;;;;;9.45;5.13;;;4.10;99.90;;;;;;4989877;28;20045;-73
2022/10/09 02:33:59;;;;;;;11.98;5.95;;;4.10;99.90;;;;;;4976107;28;20049;-76
2022/10/09 02:36:26;;;;;;;9.20;5.00;;;4.00;99.90;;;;;;4991299;28;20042;-71
2022/10/09 02:38:53;;;;;;;13.93;6.10;;;4.00;99.90;;;;;;4991060;28;20395;-73
2022/10/09 02:41:20;;;;;;;12.27;6.40;;;4.00;99.90;;;;;;4991179;28;20053;-73
2022/10/09 02:43:47;;;;;;;9.90;6.32;;;4.10;99.90;;;;;;4992581;28;20053;-72
2022/10/09 02:46:14;;;;;;;10.23;5.97;;;4.10;99.90;;;;;;4991535;28;20026;-72
2022/10/09 02:48:40;;;;;;;11.18;5.93;;;4.10;99.90;;;;;;4990377;28;20051;-73
2022/10/09 02:51:06;;;;;;;11.68;6.50;;;4.10;99.90;;;;;;4990150;28;20039;-73
2022/10/09 02:53:32;;;;;;;11.45;6.70;;;4.20;99.90;;;;;;4991090;28;20042;-73
2022/10/09 02:55:58;;;;;;;12.10;7.30;;;4.20;99.90;;;;;;4990253;28;20057;-74
2022/10/09 02:58:25;;;;;;;14.95;9.05;;;4.40;99.90;;;;;;4990471;28;20038;-73
2022/10/09 03:00:52;;;;;;;18.48;10.25;;;4.70;99.90;;;;;;4984619;28;20459;-76
2022/10/09 03:03:19;;;;;;;21.02;12.73;;;5.00;99.90;;;;;;4992464;28;20034;-74
2022/10/09 03:05:46;;;;;;;25.80;13.18;;;5.30;99.90;;;;;;4991037;28;20030;-72
2022/10/09 03:08:13;;;;;;;19.42;11.35;;;5.50;99.90;;;;;;4993626;28;20030;-73
2022/10/09 03:10:40;;;;;;;21.20;11.75;;;5.60;99.90;;;;;;4974601;28;20031;-72
2022/10/09 03:13:06;;;;;;;21.55;12.75;;;5.60;99.90;;;;;;4994180;28;20045;-73
2022/10/09 03:15:34;;;;;;;19.90;11.85;;;5.70;99.90;;;;;;4996401;28;20034;-73
2022/10/09 03:18:00;;;;;;;18.83;11.00;;;5.70;99.90;;;;;;4994049;28;20046;-73
2022/10/09 03:20:28;;;;;;;18.05;10.60;;;5.70;99.90;;;;;;4994872;28;20053;-72
2022/10/09 03:22:55;;;;;;;21.77;12.07;;;5.70;99.90;;;;;;4994198;28;20034;-73
2022/10/09 03:25:22;;;;;;;22.33;11.25;;;5.80;99.90;;;;;;4994321;28;20057;-73
2022/10/09 03:27:48;;;;;;;22.92;12.73;;;5.80;99.90;;;;;;4995222;28;20031;-73
2022/10/09 03:30:14;;;;;;;18.15;11.27;;;5.80;99.90;;;;;;4995841;28;20206;-73
2022/10/09 03:32:40;;;;;;;18.33;11.57;;;5.70;99.90;;;;;;5009093;28;20049;-72
2022/10/09 03:35:07;;;;;;;18.70;10.52;;;5.80;99.90;;;;;;5003662;28;20050;-73
2022/10/09 03:37:33;;;;;;;19.80;9.93;;;5.80;99.90;;;;;;4995876;28;20034;-74
2022/10/09 03:39:59;;;;;;;19.08;10.80;;;5.70;99.90;;;;;;5008396;28;20050;-74
2022/10/09 03:42:26;;;;;;;21.70;11.18;;;5.70;99.90;;;;;;4994923;28;20030;-73
2022/10/09 03:44:52;;;;;;;25.55;10.93;;;5.70;99.90;;;;;;4995093;28;20387;-77
2022/10/09 03:47:18;;;;;;;18.17;10.60;;;5.60;99.90;;;;;;4994916;28;20027;-72
2022/10/09 03:49:44;;;;;;;19.95;9.70;;;5.60;99.90;;;;;;4992840;28;20046;-72
2022/10/09 03:52:10;;;;;;;20.13;10.50;;;5.60;99.90;;;;;;4991176;28;20230;-73
2022/10/09 03:54:37;;;;;;;23.27;10.27;;;5.50;99.90;;;;;;4994084;28;20049;-73
2022/10/09 03:57:03;;;;;;;14.50;9.77;;;5.50;99.90;;;;;;4993634;28;20030;-74
2022/10/09 03:59:29;;;;;;;17.05;10.30;;;5.50;99.90;;;;;;4994177;28;20041;-73
2022/10/09 04:01:55;;;;;;;13.50;9.85;;;5.50;99.90;;;;;;4991607;28;20037;-76
2022/10/09 04:04:21;;;;;;;16.13;10.15;;;5.40;99.90;;;;;;4994311;28;20042;-74
2022/10/09 04:06:47;;;;;;;17.60;10.02;;;5.40;99.90;;;;;;4993788;28;20428;-73
2022/10/09 04:09:14;;;;;;;18.52;10.85;;;5.40;99.90;;;;;;4993018;28;20018;-72
2022/10/09 04:11:40;;;;;;;20.50;12.02;;;5.40;99.90;;;;;;4992582;28;20038;-73
2022/10/09 04:14:06;;;;;;;16.58;10.38;;;5.40;99.90;;;;;;4991849;28;20042;-73
2022/10/09 04:16:32;;;;;;;16.02;9.63;;;5.30;99.90;;;;;;4990862;28;20460;-73
2022/10/09 04:18:58;;;;;;;16.20;9.90;;;5.30;99.90;;;;;;4991473;28;20460;-73
2022/10/09 04:21:24;;;;;;;18.17;9.88;;;5.30;99.90;;;;;;4991398;28;20038;-73
2022/10/09 04:23:51;;;;;;;16.98;10.02;;;5.30;99.90;;;;;;4993576;28;20491;-73
2022/10/09 04:26:17;;;;;;;21.90;11.07;;;5.30;99.90;;;;;;4992992;28;20046;-73
2022/10/09 04:28:44;;;;;;;12.43;9.23;;;5.30;99.90;;;;;;4993787;28;20061;-73
2022/10/09 04:31:10;;;;;;;19.17;9.80;;;5.20;99.90;;;;;;4991314;28;20057;-73
2022/10/09 04:33:36;;;;;;;13.45;8.82;;;5.10;99.90;;;;;;4993288;28;20391;-73
2022/10/09 04:36:03;;;;;;;17.98;9.65;;;5.00;99.90;;;;;;4991653;28;20047;-72
2022/10/09 04:38:30;;;;;;;11.57;8.50;;;4.90;99.90;;;;;;4992273;28;20115;-72
2022/10/09 04:41:02;;;;;;;15.82;8.05;;;4.90;99.90;;;;;;4991405;28;20026;-76
2022/10/09 04:43:30;;;;;;;14.68;8.48;;;4.80;99.90;;;;;;4993364;28;20055;-73
2022/10/09 04:45:57;;;;;;;19.75;9.00;;;4.80;99.90;;;;;;4992506;28;20046;-76
2022/10/09 04:48:24;;;;;;;14.82;7.53;;;4.80;99.90;;;;;;4954712;28;1110841;-71
2022/10/09 04:50:50;;;;;;;14.77;8.93;;;4.70;99.90;;;;;;4992179;28;20035;-72
2022/10/09 04:53:17;;;;;;;15.10;9.00;;;4.60;99.90;;;;;;4993382;28;20038;-72
2022/10/09 04:55:43;;;;;;;18.63;9.25;;;4.70;99.90;;;;;;4992977;28;20034;-72
2022/10/09 04:58:11;;;;;;;15.07;9.10;;;4.70;99.90;;;;;;4993549;28;20038;-72
2022/10/09 05:00:45;;;;;;;14.98;9.00;;;4.70;99.90;;;;;;4992667;28;20026;-73
2022/10/09 05:03:11;;;;;;;13.77;9.35;;;4.60;99.90;;;;;;4987072;28;20049;-73
2022/10/09 05:05:38;;;;;;;12.93;8.80;;;4.50;99.90;;;;;;4975726;28;20046;-73
2022/10/09 05:08:04;;;;;;;13.05;9.43;;;4.60;99.90;;;;;;4993182;28;20033;-73
2022/10/09 05:10:31;;;;;;;16.25;8.30;;;4.50;99.90;;;;;;4991606;28;20026;-73
2022/10/09 05:12:58;;;;;;;13.23;8.27;;;4.50;99.90;;;;;;4991753;28;20049;-74
2022/10/09 05:15:24;;;;;;;16.55;9.02;;;4.50;99.90;;;;;;4993667;28;20034;-74
2022/10/09 05:17:50;;;;;;;15.85;9.30;;;4.40;99.90;;;;;;4993615;28;20038;-74
2022/10/09 05:20:17;;;;;;;15.23;8.45;;;4.30;99.90;;;;;;4991838;28;20170;-73
2022/10/09 05:22:44;;;;;;;14.00;8.40;;;4.30;99.90;;;;;;4992787;28;20046;-72
2022/10/09 05:25:10;;;;;;;15.38;8.25;;;4.30;99.90;;;;;;4991692;28;20043;-74
2022/10/09 05:27:36;;;;;;;12.10;7.80;;;4.30;99.90;;;;;;4992726;28;20038;-74
2022/10/09 05:30:04;;;;;;;12.82;8.07;;;4.30;99.90;;;;;;4990801;28;20459;-73
2022/10/09 05:32:30;;;;;;;12.90;7.72;;;4.30;99.90;;;;;;4993602;28;20051;-72
2022/10/09 05:34:57;;;;;;;14.38;8.88;;;4.30;99.90;;;;;;4992061;28;20042;-75
2022/10/09 05:37:23;;;;;;;11.00;8.23;;;4.30;99.90;;;;;;4993113;28;20030;-73
2022/10/09 05:39:49;;;;;;;18.48;8.90;;;4.30;99.90;;;;;;4975191;28;20042;-73
2022/10/09 05:42:15;;;;;;;12.45;8.60;;;4.40;99.90;;;;;;4992089;28;20038;-73
2022/10/09 05:44:41;;;;;;;15.10;8.73;;;4.50;99.90;;;;;;4992995;28;20041;-73
2022/10/09 05:47:07;;;;;;;12.40;8.02;;;4.50;99.90;;;;;;4975620;28;20042;-73
2022/10/09 05:49:33;;;;;;;13.50;8.35;;;4.40;99.90;;;;;;4992132;28;20407;-73
2022/10/09 05:52:00;;;;;;;11.82;7.55;;;4.40;99.90;;;;;;4990135;28;20038;-74
2022/10/09 05:54:26;;;;;;;15.35;7.55;;;4.30;99.90;;;;;;4998789;28;20483;-72
2022/10/09 05:56:52;;;;;;;16.17;9.10;;;4.30;99.90;;;;;;4993049;28;20030;-72
2022/10/09 05:59:19;;;;;;;14.85;9.00;;;4.30;99.90;;;;;;4991970;28;20030;-74
2022/10/09 06:01:48;;;;;;;15.13;8.63;;;4.30;99.90;;;;;;4991713;28;20050;-73
2022/10/09 06:04:22;;;;;;;14.93;10.20;;;4.40;99.90;;;;;;4991973;28;20030;-73
2022/10/09 06:06:49;;;;;;;15.25;8.93;;;4.30;99.90;;;;;;4992688;28;20069;-73
2022/10/09 06:09:18;;;;;;;14.98;9.77;;;4.40;99.90;;;;;;5006724;28;20030;-74
2022/10/09 06:11:44;;;;;;;23.42;9.90;;;4.40;99.90;;;;;;4991028;28;20038;-73
2022/10/09 06:14:12;;;;;;;14.52;9.10;;;4.50;99.90;;;;;;4990194;28;20043;-72
2022/10/09 06:16:40;;;;;;;14.27;8.90;;;4.50;99.90;;;;;;4992572;28;20431;-72
2022/10/09 06:19:09;;;;;;;16.42;9.65;;;4.60;99.90;;;;;;4990570;28;20407;-72
2022/10/09 06:21:36;;;;;;;13.40;9.25;;;4.60;99.90;;;;;;4991112;28;20034;-72
2022/10/09 06:24:04;;;;;;;15.23;9.52;;;4.60;99.90;;;;;;4992075;28;20031;-74
2022/10/09 06:26:31;;;;;;;20.52;11.48;;;4.70;99.90;;;;;;4975099;28;20038;-73
2022/10/09 06:28:59;;;;;;;18.40;9.30;;;4.80;99.90;;;;;;4990860;28;20046;-76
2022/10/09 06:31:28;;;;;;;20.90;10.15;;;5.00;99.90;;;;;;4989349;28;20506;-73
2022/10/09 06:33:56;;;;;;;18.40;9.95;;;5.20;99.90;;;;;;4992346;28;20483;-73
2022/10/09 06:36:25;;;;;;;17.20;10.75;;;5.30;99.90;;;;;;4991857;28;20114;-73
2022/10/09 06:38:52;;;;;;;20.25;10.43;;;5.40;99.90;;;;;;4991235;28;20464;-72
2022/10/09 06:41:26;;;;;;;16.00;11.60;;;5.50;99.90;;;;;;4989855;28;20668;-73
2022/10/09 06:44:01;;;;;;;16.38;10.55;;;5.60;99.90;;;;;;4991361;28;20522;-72
2022/10/09 06:46:31;;;;;;;13.70;9.23;;;5.70;99.90;;;;;;4992456;28;20037;-73
2022/10/09 06:49:01;;;;;;;15.17;9.30;;;5.80;99.90;;;;;;4991995;28;20039;-73
2022/10/09 06:51:30;;;;;;;16.23;9.35;;;5.90;99.90;;;;;;4990908;28;20046;-72
2022/10/09 06:53:58;;;;;;;14.40;9.23;;;6.00;99.90;;;;;;4985870;28;20049;-72
2022/10/09 06:56:26;;;;;;;10.02;7.53;;;6.00;99.90;;;;;;4990689;28;20387;-72
2022/10/09 06:58:53;;;;;;;10.80;8.10;;;6.10;99.90;;;;;;4992018;28;20037;-72
2022/10/09 07:01:20;;;;;;;14.15;7.88;;;6.20;99.90;;;;;;4990058;28;20030;-73
2022/10/09 07:03:51;;;;;;;12.88;7.30;;;6.30;99.90;;;;;;4992296;28;20050;-72
2022/10/09 07:06:20;;;;;;;11.70;8.27;;;6.30;99.90;;;;;;4991421;28;20423;-72
2022/10/09 07:08:50;;;;;;;10.90;6.97;;;6.40;99.90;;;;;;4992303;28;20039;-72
2022/10/09 07:11:21;;;;;;;11.32;6.38;;;6.50;99.90;;;;;;4989959;28;20041;-73
2022/10/09 07:13:52;;;;;;;13.52;6.70;;;6.70;99.90;;;;;;5007551;28;20053;-72
2022/10/09 07:16:25;;;;;;;10.27;5.95;;;6.90;99.90;;;;;;4991650;28;20518;-74
2022/10/09 07:18:52;;;;;;;12.45;6.65;;;7.10;99.90;;;;;;4991054;28;20041;-73
2022/10/09 07:21:18;;;;;;;9.20;5.43;;;7.30;99.90;;;;;;4989869;28;20407;-72
2022/10/09 07:23:45;;;;;;;6.70;4.40;;;7.50;99.90;;;;;;4992437;28;20046;-72
2022/10/09 07:26:17;;;;;;;6.68;4.82;;;7.60;99.90;;;;;;4991426;28;20026;-73
2022/10/09 07:28:44;;;;;;;7.50;4.93;;;7.70;99.90;;;;;;4990857;28;20034;-73
2022/10/09 07:31:11;;;;;;;7.00;4.88;;;8.00;99.90;;;;;;4991037;28;20038;-72
2022/10/09 07:33:38;;;;;;;5.57;4.18;;;8.20;99.90;;;;;;4985544;28;20061;-72
2022/10/09 07:36:05;;;;;;;5.88;4.15;;;8.40;99.90;;;;;;4991363;28;20034;-73
2022/10/09 07:38:32;;;;;;;8.32;4.32;;;8.60;99.90;;;;;;4996928;28;20034;-70
2022/10/09 07:41:04;;;;;;;5.95;3.53;;;8.80;99.90;;;;;;4997639;28;20031;-71
2022/10/09 07:43:33;;;;;;;7.07;4.28;;;9.10;99.90;;;;;;4994816;28;20038;-71
2022/10/09 07:46:00;;;;;;;5.95;3.60;;;9.40;99.90;;;;;;4991540;28;20376;-71
2022/10/09 07:48:29;;;;;;;5.38;3.80;;;9.50;99.90;;;;;;4991128;28;20041;-71
2022/10/09 07:50:55;;;;;;;5.80;3.67;;;9.60;99.90;;;;;;4990259;28;20038;-71
2022/10/09 07:53:22;;;;;;;6.80;3.42;;;9.70;99.90;;;;;;4991683;28;20042;-71
2022/10/09 07:55:48;;;;;;;6.93;3.42;;;9.70;99.90;;;;;;4995368;28;20041;-71
2022/10/09 07:58:15;;;;;;;6.03;3.28;;;9.80;99.90;;;;;;4994523;28;20034;-71
2022/10/09 08:00:42;;;;;;;4.28;2.80;;;9.90;99.90;;;;;;4993664;28;20037;-71
2022/10/09 08:03:09;;;;;;;3.95;2.95;;;10.10;99.90;;;;;;4994068;28;20048;-71
2022/10/09 08:05:35;;;;;;;5.53;3.08;;;10.30;99.90;;;;;;4995077;28;20034;-71
2022/10/09 08:08:04;;;;;;;5.55;3.03;;;10.60;99.90;;;;;;4994340;28;20053;-74
2022/10/09 08:10:31;;;;;;;5.80;2.50;;;10.70;99.90;;;;;;4993372;28;20035;-69
2022/10/09 08:12:57;;;;;;;6.03;3.20;;;11.00;99.90;;;;;;4994776;28;20341;-71
2022/10/09 08:15:24;;;;;;;9.07;3.15;;;11.10;99.90;;;;;;4993804;28;20199;-70
2022/10/09 08:17:54;;;;;;;4.20;2.72;;;11.40;99.90;;;;;;4995080;28;20046;-71
2022/10/09 08:20:20;;;;;;;6.88;2.53;;;12.00;99.90;;;;;;4992663;28;20034;-72
2022/10/09 08:22:47;;;;;;;5.32;2.83;;;12.40;99.90;;;;;;4995961;28;20030;-70
2022/10/09 08:25:13;;;;;;;5.82;2.60;;;12.40;99.90;;;;;;4994400;28;20026;-71
2022/10/09 08:27:39;;;;;;;6.40;2.63;;;12.60;99.90;;;;;;4994996;28;20047;-71
2022/10/09 08:30:06;;;;;;;6.93;2.67;;;13.20;99.90;;;;;;4991201;28;20459;-72
2022/10/09 08:32:33;;;;;;;8.73;2.50;;;13.40;99.90;;;;;;4994168;28;20068;-71
2022/10/09 08:34:59;;;;;;;6.35;2.15;;;13.80;99.90;;;;;;4994537;28;20391;-71
2022/10/09 08:37:25;;;;;;;5.32;2.58;;;14.40;99.90;;;;;;4993508;28;20041;-71
2022/10/09 08:39:51;;;;;;;5.32;1.98;;;14.20;99.90;;;;;;4993132;28;20112;-72
2022/10/09 08:42:35;;;;;;;6.47;1.90;;;14.20;99.90;;;;;;4993955;28;20046;-72
2022/10/09 08:45:02;;;;;;;4.50;2.03;;;14.30;99.90;;;;;;4993439;28;20030;-70
2022/10/09 08:47:48;;;;;;;5.18;2.47;;;14.60;99.90;;;;;;4993461;28;20034;-72
2022/10/09 08:50:18;;;;;;;4.93;1.77;;;14.90;99.90;;;;;;5005772;28;20045;-71
2022/10/09 08:52:54;;;;;;;5.93;1.92;;;15.50;99.90;;;;;;4994451;28;20049;-71
2022/10/09 08:55:35;;;;;;;3.30;1.92;;;16.20;99.90;;;;;;4993167;28;20491;-69
2022/10/09 08:58:05;;;;;;;8.35;2.13;;;16.50;98.50;;;;;;5008745;28;20042;-72
2022/10/09 09:00:48;;;;;;;6.78;1.83;;;16.40;97.60;;;;;;4992700;28;20034;-72
2022/10/09 09:03:24;;;;;;;3.33;1.90;;;17.20;93.90;;;;;;4993312;28;20381;-70
2022/10/09 09:06:03;;;;;;;3.85;2.10;;;17.80;92.20;;;;;;4991540;28;20049;-71
2022/10/09 09:08:29;;;;;;;5.97;2.00;;;18.70;84.50;;;;;;4993638;28;20110;-73
2022/10/09 09:11:22;;;;;;;4.25;1.63;;;18.40;82.70;;;;;;4992277;28;20038;-71
2022/10/09 09:13:56;;;;;;;5.60;1.98;;;17.50;91.60;;;;;;4990185;28;20415;-71
2022/10/09 09:16:50;;;;;;;5.65;1.60;;;17.70;90.70;;;;;;4992599;28;20030;-71
2022/10/09 09:19:19;;;;;;;4.07;1.75;;;18.40;86.40;;;;;;4992434;28;20038;-73
2022/10/09 09:21:51;;;;;;;3.20;1.88;;;18.70;83.00;;;;;;4992527;28;20392;-72
2022/10/09 09:24:32;;;;;;;4.78;1.48;;;18.90;82.20;;;;;;4992845;28;20053;-72
2022/10/09 09:27:01;;;;;;;4.05;2.15;;;19.50;77.90;;;;;;4990568;28;20061;-73
2022/10/09 09:29:30;;;;;;;6.40;1.88;;;19.30;73.90;;;;;;4990255;28;20602;-70
2022/10/09 09:32:00;;;;;;;4.95;2.05;;;18.40;78.90;;;;;;4987465;28;20046;-72
2022/10/09 09:34:40;;;;;;;3.93;2.30;;;18.00;81.90;;;;;;4992493;28;20472;-72
2022/10/09 09:37:11;;;;;;;3.80;2.08;;;17.40;82.90;;;;;;4993059;28;20045;-79
2022/10/09 09:39:37;;;;;;;5.43;2.50;;;16.50;90.50;;;;;;4992442;28;20049;-74
2022/10/09 09:42:13;;;;;;;6.10;2.08;;;16.10;91.40;;;;;;4992516;28;20042;-70
2022/10/09 09:44:54;;;;;;;4.95;2.55;;;15.70;93.00;;;;;;4993826;28;20046;-73
2022/10/09 09:47:26;;;;;;;6.95;3.28;;;15.80;93.10;;;;;;4992297;28;20045;-72
2022/10/09 09:49:55;;;;;;;8.00;2.10;;;16.10;94.60;;;;;;4971824;28;20055;-70
2022/10/09 09:52:25;;;;;;;2.28;1.13;;;16.30;91.90;;;;;;4992426;28;20030;-71
2022/10/09 09:54:54;;;;;;;3.22;1.27;;;16.30;79.00;;;;;;4994155;28;20050;-72
2022/10/09 09:57:41;;;;;;;4.93;1.08;;;16.40;76.50;;;;;;4993484;28;20030;-73
2022/10/09 10:00:10;;;;;;;3.70;1.17;;;16.70;71.90;;;;;;4987785;28;20356;-72
2022/10/09 10:02:36;;;;;;;4.28;1.05;;;16.80;69.20;;;;;;4993792;28;20039;-71
2022/10/09 10:05:26;;;;;;;4.25;1.17;;;16.60;70.20;;;;;;4994437;28;20034;-71
2022/10/09 10:07:52;;;;;;;2.15;1.00;;;16.60;69.60;;;;;;4982184;28;20053;-71
2022/10/09 10:10:21;;;;;;;2.97;0.95;;;16.60;67.00;;;;;;4991302;28;20042;-72
2022/10/09 10:12:51;;;;;;;5.60;1.88;;;16.60;68.40;;;;;;4987164;28;20049;-72
2022/10/09 10:15:23;;;;;;;6.00;1.50;;;16.50;65.40;;;;;;4986555;28;20050;-70
2022/10/09 10:18:05;;;;;;;6.40;1.30;;;16.30;67.30;;;;;;4987152;28;20388;-72
2022/10/09 10:20:40;;;;;;;5.18;2.10;;;16.50;68.00;;;;;;4987355;28;20034;-72
2022/10/09 10:23:54;;;;;;;5.10;0.98;;;16.30;65.90;;;;;;4982504;28;20046;-72
2022/10/09 10:26:25;;;;;;;4.10;1.30;;;16.30;66.40;;;;;;4950908;29;20027;-71
2022/10/09 10:29:13;;;;;;;2.97;1.20;;;16.40;65.70;;;;;;4951883;29;20035;-71
2022/10/09 10:32:04;;;;;;;3.10;2.28;;;16.50;63.50;;;;;;4974718;28;20050;-71
2022/10/09 10:34:43;;;;;;;5.72;1.92;;;16.70;65.40;;;;;;4991834;28;20046;-71
2022/10/09 10:37:12;;;;;;;7.25;2.85;;;16.70;63.20;;;;;;4991273;28;20387;-74
2022/10/09 10:39:44;;;;;;;4.63;1.45;;;16.90;61.00;;;;;;4988806;28;20490;-72
2022/10/09 10:42:39;;;;;;;4.72;0.60;;;16.70;59.20;;;;;;4990803;28;20042;-70
2022/10/09 10:45:16;;;;;;;4.55;0.77;;;16.70;58.60;;;;;;4982805;28;20376;-74
2022/10/09 10:47:48;;;;;;;4.55;0.95;;;16.80;58.40;;;;;;4992065;28;20033;-70
2022/10/09 10:50:15;;;;;;;3.20;0.77;;;16.80;54.20;;;;;;4990122;28;20509;-70
2022/10/09 10:53:18;;;;;;;2.15;0.60;;;16.90;54.60;;;;;;4992375;28;20042;-72
2022/10/09 10:55:57;;;;;;;1.50;0.80;;;17.10;54.30;;;;;;4992037;28;20045;-72
2022/10/09 10:58:29;;;;;;;2.22;0.90;;;16.90;55.40;;;;;;4991715;28;20487;-71
2022/10/09 11:01:14;;;;;;;1.98;0.90;;;17.10;55.10;;;;;;4988350;28;20037;-72
2022/10/09 11:04:20;;;;;;;3.17;1.05;;;17.00;55.00;;;;;;4991766;28;20058;-71
2022/10/09 11:07:04;;;;;;;4.45;1.15;;;17.20;55.50;;;;;;4991563;28;20498;-71
2022/10/09 11:10:00;;;;;;;2.33;1.05;;;17.20;54.80;;;;;;4989973;28;20031;-72
2022/10/09 11:13:01;;;;;;;4.05;1.40;;;17.10;55.70;;;;;;4991185;28;20042;-72
2022/10/09 11:15:50;;;;;;;2.15;0.85;;;17.20;55.70;;;;;;4991996;28;20042;-72
2022/10/09 11:18:58;;;;;;;2.67;1.08;;;17.30;54.40;;;;;;4963984;28;20047;-71
2022/10/09 11:21:39;;;;;;;1.50;0.63;;;17.40;50.20;;;;;;4990137;28;20034;-72
2022/10/09 11:24:17;;;;;;;1.73;0.70;;;17.30;48.80;;;;;;4991238;28;20054;-71
2022/10/09 11:26:56;;;;;;;2.08;1.15;;;17.20;49.20;;;;;;4986361;28;20030;-72
2022/10/09 11:29:30;;;;;;;1.80;0.80;;;17.20;49.80;;;;;;4987771;28;20297;-72
2022/10/09 11:32:20;;;;;;;2.80;0.98;;;17.20;49.10;;;;;;4996209;28;20069;-72
2022/10/09 11:34:53;;;;;;;2.28;0.80;;;17.30;49.20;;;;;;4995338;28;20054;-71
2022/10/09 11:37:25;;;;;;;1.92;0.85;;;17.20;49.30;;;;;;4995668;28;20034;-72
2022/10/09 11:39:52;;;;;;;2.70;0.73;;;17.40;49.40;;;;;;4993099;28;20042;-71
2022/10/09 11:42:23;;;;;;;1.95;0.88;;;17.50;47.50;;;;;;4995235;28;20034;-72
2022/10/09 11:45:17;;;;;;;2.38;0.77;;;17.40;47.40;;;;;;4995789;28;20034;-72
2022/10/09 11:48:25;;;;;;;1.90;0.70;;;17.50;47.50;;;;;;4992354;28;20034;-72
2022/10/09 11:51:03;;;;;;;3.05;0.80;;;17.50;46.10;;;;;;4980227;28;20057;-71
2022/10/09 11:53:33;;;;;;;1.70;0.98;;;17.70;46.70;;;;;;5000952;28;20047;-70
2022/10/09 11:56:05;;;;;;;4.03;1.23;;;17.80;45.00;;;;;;5006438;28;20041;-71
2022/10/09 11:58:32;;;;;;;3.58;0.60;;;17.60;46.50;;;;;;4998830;28;20282;-71
2022/10/09 12:01:12;;;;;;;2.78;0.82;;;17.70;46.00;;;;;;4994567;28;20042;-71
2022/10/09 12:03:39;;;;;;;1.95;0.55;;;17.50;44.40;;;;;;4995611;28;20038;-71
2022/10/09 12:06:14;;;;;;;3.13;0.63;;;17.70;44.50;;;;;;4995622;28;20030;-70
2022/10/09 12:08:52;;;;;;;2.08;0.85;;;17.50;43.80;;;;;;4995603;28;20464;-70
2022/10/09 12:11:19;;;;;;;1.75;0.70;;;17.80;44.60;;;;;;4993613;28;20030;-71
2022/10/09 12:14:07;;;;;;;3.22;0.60;;;17.70;44.30;;;;;;4995289;28;20038;-71
2022/10/09 12:16:43;;;;;;;1.27;0.60;;;17.80;45.60;;;;;;4994561;28;20046;-70
2022/10/09 12:19:24;;;;;;;2.47;0.70;;;17.90;44.70;;;;;;4994652;28;20046;-71
2022/10/09 12:21:58;;;;;;;2.75;0.73;;;18.00;45.70;;;;;;4995461;28;20197;-70
2022/10/09 12:24:29;;;;;;;2.60;0.63;;;18.10;45.00;;;;;;4976951;28;20038;-71
2022/10/09 12:27:02;;;;;;;3.97;0.95;;;18.20;44.60;;;;;;4995319;28;20041;-72
2022/10/09 12:29:39;;;;;;;1.42;0.68;;;18.10;45.90;;;;;;4993121;28;20391;-71
2022/10/09 12:32:22;;;;;;;3.72;0.90;;;17.90;45.10;;;;;;4995109;28;20502;-71
2022/10/09 12:34:50;;;;;;;1.50;0.70;;;17.80;45.80;;;;;;4994754;28;20054;-71
2022/10/09 12:37:19;;;;;;;1.52;0.65;;;17.90;46.30;;;;;;4993066;28;20050;-70
2022/10/09 12:39:47;;;;;;;2.95;0.63;;;17.90;45.00;;;;;;4992071;28;20042;-71
2022/10/09 12:42:20;;;;;;;1.45;0.60;;;18.00;45.50;;;;;;4994576;28;20038;-74
2022/10/09 12:44:48;;;;;;;2.50;0.73;;;18.10;45.00;;;;;;4994837;28;20038;-72
2022/10/09 12:47:26;;;;;;;1.15;0.57;;;18.00;44.70;;;;;;4994203;28;20464;-72
2022/10/09 12:50:16;;;;;;;5.10;1.17;;;18.00;46.20;;;;;;4993220;28;20046;-70
2022/10/09 12:52:57;;;;;;;2.75;0.57;;;17.80;46.90;;;;;;4993541;28;20063;-71
2022/10/09 12:55:27;;;;;;;5.07;0.70;;;17.90;46.20;;;;;;4993911;28;20034;-72
2022/10/09 12:57:57;;;;;;;2.97;0.45;;;17.80;46.50;;;;;;4994864;28;20030;-72
2022/10/09 13:00:23;;;;;;;1.27;0.50;;;17.90;45.90;;;;;;4992530;28;20034;-73
2022/10/09 13:02:49;;;;;;;3.97;0.88;;;17.80;46.30;;;;;;4994600;28;20050;-71
2022/10/09 13:05:16;;;;;;;1.70;0.60;;;17.90;46.80;;;;;;4992577;28;20045;-74
2022/10/09 13:07:51;;;;;;;1.38;0.68;;;18.00;46.80;;;;;;4994428;28;20034;-71
2022/10/09 13:10:21;;;;;;;1.92;0.55;;;17.90;46.30;;;;;;4992200;28;20034;-72